sensor_id;sensor_type;location;lat;lon;timestamp;pressure;altitude;pressure_sealevel;temperature;humidity
32197;BME280;18697;42.770;23.400;2023-01-28T00:01:35;95019.00;;;2.69;78.76
32197;BME280;18697;42.770;23.400;2023-01-28T00:04:01;95016.50;;;2.58;79.17
32197;BME280;18697;42.770;23.400;2023-01-28T00:06:26;95017.78;;;2.53;79.41
32197;BME280;18697;42.770;23.400;2023-01-28T00:08:52;95027.28;;;2.49;79.43
32197;BME280;18697;42.770;23.400;2023-01-28T00:11:19;95032.06;;;2.45;80.18
32197;BME280;18697;42.770;23.400;2023-01-28T00:13:50;95029.75;;;2.43;80.41
32197;BME280;18697;42.770;23.400;2023-01-28T00:16:16;95041.97;;;2.39;80.81
32197;BME280;18697;42.770;23.400;2023-01-28T00:18:41;95034.97;;;2.38;80.56
32197;BME280;18697;42.770;23.400;2023-01-28T00:21:09;95037.50;;;2.28;81.23
32197;BME280;18697;42.770;23.400;2023-01-28T00:23:36;95042.47;;;2.34;81.17
32197;BME280;18697;42.770;23.400;2023-01-28T00:26:09;95052.16;;;2.38;80.89
32197;BME280;18697;42.770;23.400;2023-01-28T00:28:34;95047.88;;;2.37;80.72
32197;BME280;18697;42.770;23.400;2023-01-28T00:31:20;95044.66;;;2.42;80.88
32197;BME280;18697;42.770;23.400;2023-01-28T00:33:47;95049.97;;;2.49;80.49
32197;BME280;18697;42.770;23.400;2023-01-28T00:36:13;95068.38;;;2.49;80.37
32197;BME280;18697;42.770;23.400;2023-01-28T00:38:40;95052.72;;;2.49;80.17
32197;BME280;18697;42.770;23.400;2023-01-28T00:41:11;95055.38;;;2.53;79.83
32197;BME280;18697;42.770;23.400;2023-01-28T00:43:37;95053.84;;;2.52;79.79
32197;BME280;18697;42.770;23.400;2023-01-28T00:46:04;95064.28;;;2.57;80.07
32197;BME280;18697;42.770;23.400;2023-01-28T00:48:29;95064.22;;;2.60;79.87
32197;BME280;18697;42.770;23.400;2023-01-28T00:50:56;95068.06;;;2.63;79.52
32197;BME280;18697;42.770;23.400;2023-01-28T00:53:21;95054.38;;;2.63;79.53
32197;BME280;18697;42.770;23.400;2023-01-28T00:55:47;95059.16;;;2.59;79.37
32197;BME280;18697;42.770;23.400;2023-01-28T00:58:12;95062.59;;;2.63;78.84
32197;BME280;18697;42.770;23.400;2023-01-28T01:00:38;95062.66;;;2.59;78.61
32197;BME280;18697;42.770;23.400;2023-01-28T01:03:03;95058.47;;;2.55;78.47
32197;BME280;18697;42.770;23.400;2023-01-28T01:05:28;95068.38;;;2.49;78.54
32197;BME280;18697;42.770;23.400;2023-01-28T01:07:54;95073.16;;;2.45;78.83
32197;BME280;18697;42.770;23.400;2023-01-28T01:10:19;95080.97;;;2.46;79.18
32197;BME280;18697;42.770;23.400;2023-01-28T01:12:46;95063.41;;;2.44;79.34
32197;BME280;18697;42.770;23.400;2023-01-28T01:15:12;95075.41;;;2.50;79.24
32197;BME280;18697;42.770;23.400;2023-01-28T01:17:40;95070.72;;;2.50;79.06
32197;BME280;18697;42.770;23.400;2023-01-28T01:20:08;95075.25;;;2.57;78.77
32197;BME280;18697;42.770;23.400;2023-01-28T01:22:35;95067.38;;;2.59;78.16
32197;BME280;18697;42.770;23.400;2023-01-28T01:25:01;95074.41;;;2.60;78.17
32197;BME280;18697;42.770;23.400;2023-01-28T01:27:28;95073.75;;;2.72;78.26
32197;BME280;18697;42.770;23.400;2023-01-28T01:29:54;95071.69;;;2.76;78.07
32197;BME280;18697;42.770;23.400;2023-01-28T01:32:20;95085.34;;;2.80;77.67
32197;BME280;18697;42.770;23.400;2023-01-28T01:34:46;95080.28;;;2.78;78.05
32197;BME280;18697;42.770;23.400;2023-01-28T01:37:12;95073.66;;;2.76;77.73
32197;BME280;18697;42.770;23.400;2023-01-28T01:39:37;95079.06;;;2.79;77.34
32197;BME280;18697;42.770;23.400;2023-01-28T01:42:02;95075.63;;;2.75;77.64
32197;BME280;18697;42.770;23.400;2023-01-28T01:45:00;95074.69;;;2.82;77.66
32197;BME280;18697;42.770;23.400;2023-01-28T01:47:39;95081.91;;;2.76;77.60
32197;BME280;18697;42.770;23.400;2023-01-28T01:50:36;95081.13;;;2.75;77.47
32197;BME280;18697;42.770;23.400;2023-01-28T01:53:09;95080.28;;;2.78;77.57
32197;BME280;18697;42.770;23.400;2023-01-28T01:55:38;95079.50;;;2.78;77.60
32197;BME280;18697;42.770;23.400;2023-01-28T01:58:11;95076.84;;;2.74;77.67
32197;BME280;18697;42.770;23.400;2023-01-28T02:00:38;95080.44;;;2.71;77.57
32197;BME280;18697;42.770;23.400;2023-01-28T02:03:04;95077.00;;;2.67;77.45
32197;BME280;18697;42.770;23.400;2023-01-28T02:05:30;95089.78;;;2.74;77.55
32197;BME280;18697;42.770;23.400;2023-01-28T02:07:57;95086.25;;;2.73;77.54
32197;BME280;18697;42.770;23.400;2023-01-28T02:10:44;95089.69;;;2.77;77.59
32197;BME280;18697;42.770;23.400;2023-01-28T02:13:11;95090.81;;;2.80;77.69
32197;BME280;18697;42.770;23.400;2023-01-28T02:15:37;95087.22;;;2.83;77.44
32197;BME280;18697;42.770;23.400;2023-01-28T02:18:03;95096.56;;;2.85;77.66
32197;BME280;18697;42.770;23.400;2023-01-28T02:34:03;95102.75;;;2.89;77.02
32197;BME280;18697;42.770;23.400;2023-01-28T02:36:52;95098.13;;;2.86;77.12
32197;BME280;18697;42.770;23.400;2023-01-28T02:39:23;95103.59;;;2.86;77.20
32197;BME280;18697;42.770;23.400;2023-01-28T02:42:08;95100.09;;;2.86;77.32
32197;BME280;18697;42.770;23.400;2023-01-28T02:44:35;95099.22;;;2.89;77.33
32197;BME280;18697;42.770;23.400;2023-01-28T02:47:00;95088.88;;;2.96;77.35
32197;BME280;18697;42.770;23.400;2023-01-28T02:49:49;95094.34;;;3.13;76.48
32197;BME280;18697;42.770;23.400;2023-01-28T03:06:09;95091.94;;;3.15;75.33
32197;BME280;18697;42.770;23.400;2023-01-28T03:08:44;95100.50;;;3.17;75.17
32197;BME280;18697;42.770;23.400;2023-01-28T03:11:30;95092.88;;;3.08;75.20
32197;BME280;18697;42.770;23.400;2023-01-28T03:14:17;95107.72;;;3.11;75.57
32197;BME280;18697;42.770;23.400;2023-01-28T03:17:02;95101.88;;;3.09;75.43
32197;BME280;18697;42.770;23.400;2023-01-28T03:19:49;95094.84;;;3.08;75.56
32197;BME280;18697;42.770;23.400;2023-01-28T03:22:36;95107.53;;;3.02;75.50
32197;BME280;18697;42.770;23.400;2023-01-28T03:25:23;95105.97;;;3.01;75.80
32197;BME280;18697;42.770;23.400;2023-01-28T03:28:11;95101.69;;;3.00;75.90
32197;BME280;18697;42.770;23.400;2023-01-28T03:31:05;95109.28;;;2.95;75.54
32197;BME280;18697;42.770;23.400;2023-01-28T03:33:52;95103.59;;;2.86;75.74
32197;BME280;18697;42.770;23.400;2023-01-28T03:36:37;95101.34;;;2.81;76.14
32197;BME280;18697;42.770;23.400;2023-01-28T03:39:22;95112.41;;;2.78;76.72
32197;BME280;18697;42.770;23.400;2023-01-28T03:44:25;95112.25;;;2.85;76.35
32197;BME280;18697;42.770;23.400;2023-01-28T03:47:10;95100.50;;;2.84;76.34
32197;BME280;18697;42.770;23.400;2023-01-28T03:49:44;95119.00;;;2.80;76.39
32197;BME280;18697;42.770;23.400;2023-01-28T03:52:11;95110.94;;;2.73;76.61
32197;BME280;18697;42.770;23.400;2023-01-28T03:54:37;95117.63;;;2.72;76.63
32197;BME280;18697;42.770;23.400;2023-01-28T03:57:03;95117.44;;;2.63;76.70
32197;BME280;18697;42.770;23.400;2023-01-28T03:59:31;95121.38;;;2.62;77.02
32197;BME280;18697;42.770;23.400;2023-01-28T04:01:57;95125.22;;;2.64;77.28
32197;BME280;18697;42.770;23.400;2023-01-28T04:04:22;95129.59;;;2.62;77.05
32197;BME280;18697;42.770;23.400;2023-01-28T04:06:50;95122.56;;;2.61;77.35
32197;BME280;18697;42.770;23.400;2023-01-28T04:09:16;95129.25;;;2.60;77.29
32197;BME280;18697;42.770;23.400;2023-01-28T04:11:41;95132.13;;;2.53;77.11
32197;BME280;18697;42.770;23.400;2023-01-28T04:14:07;95136.41;;;2.54;77.40
32197;BME280;18697;42.770;23.400;2023-01-28T04:16:32;95138.47;;;2.50;77.44
32197;BME280;18697;42.770;23.400;2023-01-28T04:18:57;95141.28;;;2.46;77.69
32197;BME280;18697;42.770;23.400;2023-01-28T04:21:23;95145.63;;;2.44;78.19
32197;BME280;18697;42.770;23.400;2023-01-28T04:23:49;95135.50;;;2.41;77.83
32197;BME280;18697;42.770;23.400;2023-01-28T04:26:15;95137.97;;;2.35;78.32
32197;BME280;18697;42.770;23.400;2023-01-28T04:28:40;95140.94;;;2.24;78.72
32197;BME280;18697;42.770;23.400;2023-01-28T04:31:05;95155.41;;;2.25;79.06
32197;BME280;18697;42.770;23.400;2023-01-28T04:33:31;95154.56;;;2.28;78.82
32197;BME280;18697;42.770;23.400;2023-01-28T04:35:56;95149.66;;;2.19;79.16
32197;BME280;18697;42.770;23.400;2023-01-28T04:38:22;95150.78;;;2.22;79.46
32197;BME280;18697;42.770;23.400;2023-01-28T04:40:51;95156.28;;;2.22;79.37
32197;BME280;18697;42.770;23.400;2023-01-28T04:43:16;95165.41;;;2.15;79.54
32197;BME280;18697;42.770;23.400;2023-01-28T04:45:42;95162.66;;;2.15;79.70
32197;BME280;18697;42.770;23.400;2023-01-28T04:48:08;95169.34;;;2.14;79.56
32197;BME280;18697;42.770;23.400;2023-01-28T04:50:33;95157.31;;;2.08;79.75
32197;BME280;18697;42.770;23.400;2023-01-28T04:52:59;95163.97;;;2.07;79.79
32197;BME280;18697;42.770;23.400;2023-01-28T04:55:24;95175.72;;;2.08;80.00
32197;BME280;18697;42.770;23.400;2023-01-28T04:57:49;95172.69;;;2.02;80.17
32197;BME280;18697;42.770;23.400;2023-01-28T05:00:15;95169.25;;;1.98;80.36
32197;BME280;18697;42.770;23.400;2023-01-28T05:02:41;95182.81;;;2.05;80.67
32197;BME280;18697;42.770;23.400;2023-01-28T05:05:06;95176.06;;;2.10;80.61
32197;BME280;18697;42.770;23.400;2023-01-28T05:07:33;95173.34;;;2.10;80.80
32197;BME280;18697;42.770;23.400;2023-01-28T05:09:59;95174.94;;;2.07;80.96
32197;BME280;18697;42.770;23.400;2023-01-28T05:12:24;95177.75;;;2.04;81.05
32197;BME280;18697;42.770;23.400;2023-01-28T05:14:50;95183.16;;;2.07;81.04
32197;BME280;18697;42.770;23.400;2023-01-28T05:17:15;95183.66;;;2.02;81.13
32197;BME280;18697;42.770;23.400;2023-01-28T05:19:40;95189.19;;;1.98;81.12
32197;BME280;18697;42.770;23.400;2023-01-28T05:22:06;95181.44;;;1.93;81.29
32197;BME280;18697;42.770;23.400;2023-01-28T05:24:31;95194.00;;;1.91;81.24
32197;BME280;18697;42.770;23.400;2023-01-28T05:26:56;95203.84;;;1.88;81.15
32197;BME280;18697;42.770;23.400;2023-01-28T05:29:22;95200.38;;;1.84;81.01
32197;BME280;18697;42.770;23.400;2023-01-28T05:31:47;95191.09;;;1.78;81.07
32197;BME280;18697;42.770;23.400;2023-01-28T05:34:13;95207.81;;;1.84;80.95
32197;BME280;18697;42.770;23.400;2023-01-28T05:36:39;95198.19;;;1.76;80.70
32197;BME280;18697;42.770;23.400;2023-01-28T05:39:05;95203.31;;;1.74;80.86
32197;BME280;18697;42.770;23.400;2023-01-28T05:41:32;95204.50;;;1.73;80.63
32197;BME280;18697;42.770;23.400;2023-01-28T05:43:57;95208.91;;;1.67;80.69
32197;BME280;18697;42.770;23.400;2023-01-28T05:46:23;95214.31;;;1.70;80.80
32197;BME280;18697;42.770;23.400;2023-01-28T05:48:50;95212.00;;;1.69;80.60
32197;BME280;18697;42.770;23.400;2023-01-28T05:51:15;95217.06;;;1.70;80.77
32197;BME280;18697;42.770;23.400;2023-01-28T05:53:41;95217.47;;;1.69;80.85
32197;BME280;18697;42.770;23.400;2023-01-28T05:56:06;95224.03;;;1.75;80.40
32197;BME280;18697;42.770;23.400;2023-01-28T05:58:32;95230.31;;;1.72;80.82
32197;BME280;18697;42.770;23.400;2023-01-28T06:00:57;95218.25;;;1.69;80.76
32197;BME280;18697;42.770;23.400;2023-01-28T06:03:24;95231.88;;;1.73;80.55
32197;BME280;18697;42.770;23.400;2023-01-28T06:05:49;95228.66;;;1.78;80.55
32197;BME280;18697;42.770;23.400;2023-01-28T06:08:15;95228.53;;;1.85;80.55
32197;BME280;18697;42.770;23.400;2023-01-28T06:10:40;95243.53;;;1.77;80.26
32197;BME280;18697;42.770;23.400;2023-01-28T06:13:05;95243.13;;;1.78;80.20
32197;BME280;18697;42.770;23.400;2023-01-28T06:15:31;95247.84;;;1.78;80.28
32197;BME280;18697;42.770;23.400;2023-01-28T06:17:57;95250.22;;;1.76;80.52
32197;BME280;18697;42.770;23.400;2023-01-28T06:20:23;95238.59;;;1.68;80.48
32197;BME280;18697;42.770;23.400;2023-01-28T06:22:51;95246.88;;;1.64;80.46
32197;BME280;18697;42.770;23.400;2023-01-28T06:25:17;95253.88;;;1.65;81.02
32197;BME280;18697;42.770;23.400;2023-01-28T06:27:43;95253.13;;;1.65;80.44
32197;BME280;18697;42.770;23.400;2023-01-28T06:30:10;95268.72;;;1.68;80.79
32197;BME280;18697;42.770;23.400;2023-01-28T06:32:35;95267.53;;;1.69;80.70
32197;BME280;18697;42.770;23.400;2023-01-28T06:35:01;95261.75;;;1.63;80.90
32197;BME280;18697;42.770;23.400;2023-01-28T06:37:26;95271.09;;;1.66;80.97
32197;BME280;18697;42.770;23.400;2023-01-28T06:39:51;95272.63;;;1.67;81.04
32197;BME280;18697;42.770;23.400;2023-01-28T06:42:17;95258.59;;;1.65;80.66
32197;BME280;18697;42.770;23.400;2023-01-28T06:44:42;95271.44;;;1.68;80.96
32197;BME280;18697;42.770;23.400;2023-01-28T06:47:08;95273.34;;;1.71;81.09
32197;BME280;18697;42.770;23.400;2023-01-28T06:49:35;95279.91;;;1.77;81.04
32197;BME280;18697;42.770;23.400;2023-01-28T06:52:01;95285.75;;;1.79;80.96
32197;BME280;18697;42.770;23.400;2023-01-28T06:54:26;95290.50;;;1.75;81.02
32197;BME280;18697;42.770;23.400;2023-01-28T06:56:52;95286.28;;;1.71;81.13
32197;BME280;18697;42.770;23.400;2023-01-28T06:59:17;95286.28;;;1.71;81.04
32197;BME280;18697;42.770;23.400;2023-01-28T07:01:42;95303.84;;;1.73;81.00
32197;BME280;18697;42.770;23.400;2023-01-28T07:04:08;95286.75;;;1.65;80.89
32197;BME280;18697;42.770;23.400;2023-01-28T07:06:33;95298.41;;;1.70;80.97
32197;BME280;18697;42.770;23.400;2023-01-28T07:08:59;95301.16;;;1.70;81.43
32197;BME280;18697;42.770;23.400;2023-01-28T07:11:24;95307.00;;;1.72;81.55
32197;BME280;18697;42.770;23.400;2023-01-28T07:13:49;95305.81;;;1.73;81.25
32197;BME280;18697;42.770;23.400;2023-01-28T07:16:15;95308.13;;;1.74;81.24
32197;BME280;18697;42.770;23.400;2023-01-28T07:18:41;95309.25;;;1.77;80.64
32197;BME280;18697;42.770;23.400;2023-01-28T07:21:06;95321.28;;;1.83;80.78
32197;BME280;18697;42.770;23.400;2023-01-28T07:23:32;95320.88;;;1.84;80.39
32197;BME280;18697;42.770;23.400;2023-01-28T07:26:04;95325.41;;;1.94;80.37
32197;BME280;18697;42.770;23.400;2023-01-28T07:28:29;95321.03;;;2.01;80.27
32197;BME280;18697;42.770;23.400;2023-01-28T07:30:55;95326.44;;;2.04;80.15
32197;BME280;18697;42.770;23.400;2023-01-28T07:33:20;95349.91;;;2.05;80.02
32197;BME280;18697;42.770;23.400;2023-01-28T07:35:46;95333.13;;;2.03;79.70
32197;BME280;18697;42.770;23.400;2023-01-28T07:38:12;95336.16;;;2.09;79.86
32197;BME280;18697;42.770;23.400;2023-01-28T07:40:38;95332.22;;;2.10;79.17
32197;BME280;18697;42.770;23.400;2023-01-28T07:43:04;95351.34;;;2.13;78.90
32197;BME280;18697;42.770;23.400;2023-01-28T07:45:31;95341.22;;;2.10;78.70
32197;BME280;18697;42.770;23.400;2023-01-28T07:47:58;95351.34;;;2.13;79.04
32197;BME280;18697;42.770;23.400;2023-01-28T07:50:25;95352.13;;;2.14;79.12
32197;BME280;18697;42.770;23.400;2023-01-28T07:52:50;95351.28;;;2.17;78.78
32197;BME280;18697;42.770;23.400;2023-01-28T07:55:16;95355.16;;;2.19;78.96
32197;BME280;18697;42.770;23.400;2023-01-28T07:57:51;95365.75;;;2.17;78.89
32197;BME280;18697;42.770;23.400;2023-01-28T08:00:19;95353.25;;;2.16;78.81
32197;BME280;18697;42.770;23.400;2023-01-28T08:02:45;95360.28;;;2.17;78.68
32197;BME280;18697;42.770;23.400;2023-01-28T08:05:16;95359.09;;;2.18;78.71
32197;BME280;18697;42.770;23.400;2023-01-28T08:07:41;95368.91;;;2.16;78.88
32197;BME280;18697;42.770;23.400;2023-01-28T08:10:08;95370.78;;;2.22;79.26
32197;BME280;18697;42.770;23.400;2023-01-28T08:12:34;95370.84;;;2.19;78.69
32197;BME280;18697;42.770;23.400;2023-01-28T08:14:59;95375.13;;;2.20;78.58
32197;BME280;18697;42.770;23.400;2023-01-28T08:17:24;95366.81;;;2.23;78.39
32197;BME280;18697;42.770;23.400;2023-01-28T08:19:50;95371.06;;;2.28;78.85
32197;BME280;18697;42.770;23.400;2023-01-28T08:22:15;95376.84;;;2.34;78.77
32197;BME280;18697;42.770;23.400;2023-01-28T08:24:40;95375.16;;;2.40;78.43
32197;BME280;18697;42.770;23.400;2023-01-28T08:27:06;95372.78;;;2.42;78.46
32197;BME280;18697;42.770;23.400;2023-01-28T08:29:31;95381.25;;;2.51;78.44
32197;BME280;18697;42.770;23.400;2023-01-28T08:31:57;95375.22;;;2.59;78.39
32197;BME280;18697;42.770;23.400;2023-01-28T08:34:22;95373.63;;;2.62;78.29
32197;BME280;18697;42.770;23.400;2023-01-28T08:36:48;95371.59;;;2.66;77.88
32197;BME280;18697;42.770;23.400;2023-01-28T08:39:13;95375.03;;;2.70;77.21
32197;BME280;18697;42.770;23.400;2023-01-28T08:41:38;95377.31;;;2.75;77.87
32197;BME280;18697;42.770;23.400;2023-01-28T08:44:04;95386.31;;;2.76;77.20
32197;BME280;18697;42.770;23.400;2023-01-28T08:46:29;95380.81;;;2.76;77.01
32197;BME280;18697;42.770;23.400;2023-01-28T08:48:54;95377.78;;;2.70;76.92
32197;BME280;18697;42.770;23.400;2023-01-28T08:51:20;95389.16;;;2.69;77.06
32197;BME280;18697;42.770;23.400;2023-01-28T08:53:45;95388.63;;;2.77;77.77
32197;BME280;18697;42.770;23.400;2023-01-28T08:56:11;95386.78;;;2.71;77.22
32197;BME280;18697;42.770;23.400;2023-01-28T08:58:36;95390.47;;;2.60;76.26
32197;BME280;18697;42.770;23.400;2023-01-28T09:01:05;95386.25;;;2.56;76.42
32197;BME280;18697;42.770;23.400;2023-01-28T09:03:31;95395.84;;;2.44;76.41
32197;BME280;18697;42.770;23.400;2023-01-28T09:06:03;95401.28;;;2.48;77.79
32197;BME280;18697;42.770;23.400;2023-01-28T09:08:28;95396.44;;;2.55;77.63
32197;BME280;18697;42.770;23.400;2023-01-28T09:10:57;95397.16;;;2.59;77.87
32197;BME280;18697;42.770;23.400;2023-01-28T09:13:23;95405.09;;;2.54;76.99
32197;BME280;18697;42.770;23.400;2023-01-28T09:15:49;95393.88;;;2.45;77.10
32197;BME280;18697;42.770;23.400;2023-01-28T09:18:16;95395.44;;;2.46;77.33
32197;BME280;18697;42.770;23.400;2023-01-28T09:20:41;95397.81;;;2.44;77.70
32197;BME280;18697;42.770;23.400;2023-01-28T09:23:07;95395.44;;;2.46;77.44
32197;BME280;18697;42.770;23.400;2023-01-28T09:25:33;95389.47;;;2.51;78.05
32197;BME280;18697;42.770;23.400;2023-01-28T09:28:00;95393.41;;;2.50;77.66
32197;BME280;18697;42.770;23.400;2023-01-28T09:30:25;95387.91;;;2.50;77.51
32197;BME280;18697;42.770;23.400;2023-01-28T09:32:52;95383.16;;;2.54;78.04
32197;BME280;18697;42.770;23.400;2023-01-28T09:35:18;95391.38;;;2.54;77.91
32197;BME280;18697;42.770;23.400;2023-01-28T09:37:44;95384.75;;;2.51;78.47
32197;BME280;18697;42.770;23.400;2023-01-28T09:40:20;95394.53;;;2.52;78.23
32197;BME280;18697;42.770;23.400;2023-01-28T09:43:00;95387.44;;;2.55;78.72
32197;BME280;18697;42.770;23.400;2023-01-28T09:45:41;95402.03;;;2.48;78.01
32197;BME280;18697;42.770;23.400;2023-01-28T09:48:14;95391.84;;;2.49;78.41
32197;BME280;18697;42.770;23.400;2023-01-28T09:50:44;95386.78;;;2.47;79.06
32197;BME280;18697;42.770;23.400;2023-01-28T09:53:31;95393.03;;;2.48;79.01
32197;BME280;18697;42.770;23.400;2023-01-28T09:56:44;95390.13;;;2.58;80.08
32197;BME280;18697;42.770;23.400;2023-01-28T09:58:50;95397.09;;;2.63;80.47
32197;BME280;18697;42.770;23.400;2023-01-28T10:01:39;95388.41;;;2.68;80.50
32197;BME280;18697;42.770;23.400;2023-01-28T10:04:43;95386.00;;;2.70;80.48
32197;BME280;18697;42.770;23.400;2023-01-28T10:10:13;95389.34;;;2.81;80.48
32197;BME280;18697;42.770;23.400;2023-01-28T10:13:05;95387.50;;;2.75;79.68
32197;BME280;18697;42.770;23.400;2023-01-28T10:18:52;95392.63;;;2.73;80.65
32197;BME280;18697;42.770;23.400;2023-01-28T10:21:25;95385.59;;;2.72;81.28
32197;BME280;18697;42.770;23.400;2023-01-28T10:26:38;95383.75;;;2.65;81.68
32197;BME280;18697;42.770;23.400;2023-01-28T10:29:26;95381.47;;;2.60;81.99
32197;BME280;18697;42.770;23.400;2023-01-28T10:32:15;95379.94;;;2.59;82.53
32197;BME280;18697;42.770;23.400;2023-01-28T10:34:40;95379.94;;;2.59;82.26
32197;BME280;18697;42.770;23.400;2023-01-28T10:37:10;95383.69;;;2.69;82.07
32197;BME280;18697;42.770;23.400;2023-01-28T10:39:37;95384.41;;;2.73;81.96
32197;BME280;18697;42.770;23.400;2023-01-28T10:42:21;95386.72;;;2.74;81.12
32197;BME280;18697;42.770;23.400;2023-01-28T10:44:51;95382.72;;;2.79;80.70
32197;BME280;18697;42.770;23.400;2023-01-28T10:47:26;95386.53;;;2.85;80.93
32197;BME280;18697;42.770;23.400;2023-01-28T10:49:55;95381.75;;;2.89;80.55
32197;BME280;18697;42.770;23.400;2023-01-28T10:52:23;95383.25;;;2.93;80.52
32197;BME280;18697;42.770;23.400;2023-01-28T10:54:59;95391.91;;;2.92;80.21
32197;BME280;18697;42.770;23.400;2023-01-28T10:57:24;95380.50;;;2.93;80.20
32197;BME280;18697;42.770;23.400;2023-01-28T10:59:50;95368.34;;;2.94;80.85
32197;BME280;18697;42.770;23.400;2023-01-28T11:02:42;95372.34;;;2.90;79.95
32197;BME280;18697;42.770;23.400;2023-01-28T11:05:16;95381.28;;;2.94;80.05
32197;BME280;18697;42.770;23.400;2023-01-28T11:07:42;95377.75;;;2.93;80.20
32197;BME280;18697;42.770;23.400;2023-01-28T11:10:37;95382.06;;;2.94;80.53
32197;BME280;18697;42.770;23.400;2023-01-28T11:13:05;95378.72;;;3.03;80.71
32197;BME280;18697;42.770;23.400;2023-01-28T11:15:46;95379.28;;;3.14;81.03
32197;BME280;18697;42.770;23.400;2023-01-28T11:18:18;95370.66;;;3.16;79.51
32197;BME280;18697;42.770;23.400;2023-01-28T11:20:56;95376.84;;;3.20;77.92
32197;BME280;18697;42.770;23.400;2023-01-28T11:23:25;95371.00;;;3.18;77.70
32197;BME280;18697;42.770;23.400;2023-01-28T11:26:20;95378.59;;;3.30;77.91
32197;BME280;18697;42.770;23.400;2023-01-28T11:28:46;95370.00;;;3.28;77.59
32197;BME280;18697;42.770;23.400;2023-01-28T11:31:14;95374.94;;;3.37;77.52
32197;BME280;18697;42.770;23.400;2023-01-28T11:33:47;95359.09;;;3.44;78.13
32197;BME280;18697;42.770;23.400;2023-01-28T11:36:15;95369.44;;;3.56;77.76
32197;BME280;18697;42.770;23.400;2023-01-28T11:39:01;95364.28;;;3.58;76.92
32197;BME280;18697;42.770;23.400;2023-01-28T11:41:34;95364.72;;;3.57;75.90
32197;BME280;18697;42.770;23.400;2023-01-28T11:44:24;95356.84;;;3.59;76.21
32197;BME280;18697;42.770;23.400;2023-01-28T12:06:30;95365.34;;;3.81;72.92
32197;BME280;18697;42.770;23.400;2023-01-28T12:14:36;95359.28;;;3.89;72.21
32197;BME280;18697;42.770;23.400;2023-01-28T12:25:13;95358.59;;;4.02;72.46
32197;BME280;18697;42.770;23.400;2023-01-28T12:27:58;95357.50;;;3.99;71.94
32197;BME280;18697;42.770;23.400;2023-01-28T12:41:34;95365.38;;;3.97;71.79
32197;BME280;18697;42.770;23.400;2023-01-28T12:44:10;95365.53;;;3.90;72.76
32197;BME280;18697;42.770;23.400;2023-01-28T12:46:56;95373.50;;;3.84;72.25
32197;BME280;18697;42.770;23.400;2023-01-28T12:49:38;95375.06;;;3.85;73.02
32197;BME280;18697;42.770;23.400;2023-01-28T12:57:13;95373.09;;;3.70;72.59
32197;BME280;18697;42.770;23.400;2023-01-28T13:04:58;95384.22;;;3.62;72.91
32197;BME280;18697;42.770;23.400;2023-01-28T13:07:56;95388.09;;;3.65;73.46
32197;BME280;18697;42.770;23.400;2023-01-28T13:10:37;95398.13;;;3.72;75.22
32197;BME280;18697;42.770;23.400;2023-01-28T13:13:05;95395.91;;;3.67;75.26
32197;BME280;18697;42.770;23.400;2023-01-28T13:15:33;95403.94;;;3.57;75.09
32197;BME280;18697;42.770;23.400;2023-01-28T13:18:03;95391.34;;;3.40;76.35
32197;BME280;18697;42.770;23.400;2023-01-28T13:20:30;95394.84;;;3.41;76.83
32197;BME280;18697;42.770;23.400;2023-01-28T13:23:01;95403.72;;;3.48;76.82
32197;BME280;18697;42.770;23.400;2023-01-28T13:25:27;95394.50;;;3.39;76.07
32197;BME280;18697;42.770;23.400;2023-01-28T13:27:57;95398.72;;;3.43;76.80
32197;BME280;18697;42.770;23.400;2023-01-28T13:30:24;95399.22;;;3.38;76.66
32197;BME280;18697;42.770;23.400;2023-01-28T13:35:30;95402.81;;;3.35;76.37
32197;BME280;18697;42.770;23.400;2023-01-28T13:37:58;95405.97;;;3.34;77.14
32197;BME280;18697;42.770;23.400;2023-01-28T13:40:28;95408.09;;;3.26;76.30
32197;BME280;18697;42.770;23.400;2023-01-28T13:43:23;95419.91;;;3.23;76.58
32197;BME280;18697;42.770;23.400;2023-01-28T13:46:03;95411.75;;;3.19;76.75
32197;BME280;18697;42.770;23.400;2023-01-28T13:48:38;95424.03;;;3.11;75.91
32197;BME280;18697;42.770;23.400;2023-01-28T13:51:11;95417.44;;;3.09;76.19
32197;BME280;18697;42.770;23.400;2023-01-28T13:53:56;95424.13;;;3.08;76.48
32197;BME280;18697;42.770;23.400;2023-01-28T13:56:27;95422.50;;;3.10;77.23
32197;BME280;18697;42.770;23.400;2023-01-28T14:04:50;95433.13;;;3.08;77.29
32197;BME280;18697;42.770;23.400;2023-01-28T14:13:23;95430.16;;;2.99;77.24
32197;BME280;18697;42.770;23.400;2023-01-28T14:18:25;95442.84;;;3.13;78.31
32197;BME280;18697;42.770;23.400;2023-01-28T14:20:54;95452.75;;;3.07;77.74
32197;BME280;18697;42.770;23.400;2023-01-28T14:23:21;95459.78;;;3.08;77.20
32197;BME280;18697;42.770;23.400;2023-01-28T14:29:07;95463.13;;;3.19;78.15
32197;BME280;18697;42.770;23.400;2023-01-28T14:31:37;95466.03;;;3.08;77.31
32197;BME280;18697;42.770;23.400;2023-01-28T14:34:26;95467.41;;;3.20;78.17
32197;BME280;18697;42.770;23.400;2023-01-28T14:36:55;95469.31;;;3.23;78.30
32197;BME280;18697;42.770;23.400;2023-01-28T14:39:26;95477.56;;;3.23;77.83
32197;BME280;18697;42.770;23.400;2023-01-28T14:41:52;95476.97;;;3.12;76.65
32197;BME280;18697;42.770;23.400;2023-01-28T14:44:27;95478.63;;;3.06;76.40
32197;BME280;18697;42.770;23.400;2023-01-28T14:47:04;95486.38;;;3.11;77.87
32197;BME280;18697;42.770;23.400;2023-01-28T14:57:45;95493.09;;;2.86;79.31
32197;BME280;18697;42.770;23.400;2023-01-28T15:02:45;95499.13;;;2.78;78.98
32197;BME280;18697;42.770;23.400;2023-01-28T15:05:17;95501.13;;;2.74;78.24
32197;BME280;18697;42.770;23.400;2023-01-28T15:07:45;95505.78;;;2.77;78.38
32197;BME280;18697;42.770;23.400;2023-01-28T15:12:41;95500.84;;;2.68;77.87
32197;BME280;18697;42.770;23.400;2023-01-28T15:15:11;95516.09;;;2.69;78.95
32197;BME280;18697;42.770;23.400;2023-01-28T15:17:42;95505.19;;;2.66;78.80
32197;BME280;18697;42.770;23.400;2023-01-28T15:20:08;95513.72;;;2.71;78.68
32197;BME280;18697;42.770;23.400;2023-01-28T15:22:33;95506.69;;;2.70;79.05